Time;durP1;ratioP1;P1;durP2;ratioP2;P2;SDS_P1;SDS_P2;PMS_P1;PMS_P2;Temp;Humidity;BMP_temperature;BMP_pressure;BME280_temperature;BME280_humidity;BME280_pressure;Samples;Min_cycle;Max_cycle;Signal;HPM_P1;HPM_P2
2023/07/02 00:00:38;;;;;;;13.63;5.00;;;;;;;15.68;100.00;98325.28;5139694;28;20082;-54
2023/07/02 00:03:04;;;;;;;5.90;3.70;;;;;;;15.67;100.00;98330.03;5139364;27;20137;-59
2023/07/02 00:05:30;;;;;;;12.70;5.75;;;;;;;15.60;100.00;98318.28;5139744;27;20133;-54
2023/07/02 00:07:56;;;;;;;11.55;5.28;;;;;;;15.59;100.00;98334.06;5139141;28;20337;-52
2023/07/02 00:10:23;;;;;;;12.32;5.07;;;;;;;15.56;100.00;98334.91;5139085;28;20046;-59
2023/07/02 00:12:49;;;;;;;8.57;4.70;;;;;;;15.49;100.00;98344.09;5139088;27;20063;-57
2023/07/02 00:15:15;;;;;;;9.55;4.57;;;;;;;15.45;100.00;98343.34;5139280;28;20302;-53
2023/07/02 00:17:42;;;;;;;11.18;4.75;;;;;;;15.41;100.00;98358.41;5139399;28;20069;-53
2023/07/02 00:20:14;;;;;;;6.55;4.32;;;;;;;15.34;100.00;98366.81;5139154;28;20050;-52
2023/07/02 00:22:41;;;;;;;9.52;4.57;;;;;;;15.26;100.00;98374.38;5139202;28;20103;-55
2023/07/02 00:25:08;;;;;;;6.07;4.32;;;;;;;15.23;100.00;98369.72;5139053;28;20051;-55
2023/07/02 00:27:34;;;;;;;6.32;4.53;;;;;;;15.19;100.00;98364.22;5139316;28;20051;-58
2023/07/02 00:30:00;;;;;;;15.20;5.57;;;;;;;15.15;100.00;98368.25;5138809;28;20141;-57
2023/07/02 00:32:26;;;;;;;18.48;6.80;;;;;;;15.05;100.00;98362.44;5139324;28;20055;-59
2023/07/02 00:34:52;;;;;;;10.27;5.28;;;;;;;15.09;100.00;98361.59;5138705;27;20421;-60
2023/07/02 00:37:18;;;;;;;13.95;6.10;;;;;;;15.06;100.00;98364.03;5138902;28;20476;-60
2023/07/02 00:39:44;;;;;;;15.80;6.47;;;;;;;15.03;100.00;98364.84;5138696;28;20141;-56
2023/07/02 00:42:11;;;;;;;12.80;5.10;;;;;;;15.05;100.00;98356.91;5138862;28;20051;-59
2023/07/02 00:44:40;;;;;;;8.30;4.15;;;;;;;15.02;100.00;98368.00;5138887;28;20050;-56
2023/07/02 00:47:07;;;;;;;6.45;4.10;;;;;;;14.93;100.00;98368.53;5138763;28;20148;-58
2023/07/02 00:49:33;;;;;;;10.15;4.88;;;;;;;14.94;100.00;98372.06;5138794;28;20143;-59
2023/07/02 00:51:59;;;;;;;19.05;5.45;;;;;;;14.86;100.00;98381.59;5137559;27;20051;-55
2023/07/02 00:54:28;;;;;;;6.35;4.25;;;;;;;14.81;100.00;98377.34;5138910;28;20051;-60
2023/07/02 00:56:54;;;;;;;9.07;4.75;;;;;;;14.78;100.00;98380.91;5138505;28;20051;-52
2023/07/02 00:59:20;;;;;;;10.70;4.55;;;;;;;14.75;100.00;98387.25;5138850;28;20075;-57
2023/07/02 01:01:49;;;;;;;12.65;4.43;;;;;;;14.65;100.00;98388.16;5138300;28;20055;-57
2023/07/02 01:04:18;;;;;;;9.13;4.75;;;;;;;14.63;100.00;98385.03;5138736;28;20042;-56
2023/07/02 01:06:45;;;;;;;6.35;4.55;;;;;;;14.56;100.00;98383.94;5138510;28;20051;-54
2023/07/02 01:09:11;;;;;;;7.20;4.65;;;;;;;14.55;100.00;98392.59;5138374;28;20305;-60
2023/07/02 01:11:41;;;;;;;6.18;4.47;;;;;;;14.60;100.00;98389.41;5138397;28;20111;-59
2023/07/02 01:14:10;;;;;;;9.38;4.75;;;;;;;14.61;100.00;98388.19;5138105;28;20047;-54
2023/07/02 01:16:37;;;;;;;7.10;4.45;;;;;;;14.53;100.00;98382.00;5138481;27;20146;-53
2023/07/02 01:19:10;;;;;;;25.10;8.40;;;;;;;14.54;100.00;98383.53;5138144;28;20047;-58
2023/07/02 01:21:37;;;;;;;17.07;6.17;;;;;;;14.51;100.00;98381.59;5138466;28;20423;-56
2023/07/02 01:24:04;;;;;;;9.25;4.78;;;;;;;14.54;100.00;98374.50;5137966;28;20141;-54
2023/07/02 01:26:33;;;;;;;10.70;5.43;;;;;;;14.46;100.00;98376.53;5137953;28;20134;-54
2023/07/02 01:28:59;;;;;;;21.80;6.82;;;;;;;14.47;100.00;98371.78;5137867;28;20088;-56
2023/07/02 01:31:25;;;;;;;18.17;6.57;;;;;;;14.43;100.00;98377.34;5137711;28;20061;-55
2023/07/02 01:33:51;;;;;;;23.70;8.10;;;;;;;14.30;100.00;98365.25;5138130;28;20141;-53
2023/07/02 01:36:17;;;;;;;8.40;4.75;;;;;;;14.39;100.00;98362.00;5137928;28;20043;-58
2023/07/02 01:38:44;;;;;;;7.93;4.85;;;;;;;14.42;100.00;98366.69;5138123;28;20365;-60
2023/07/02 01:41:10;;;;;;;8.73;5.30;;;;;;;14.39;100.00;98368.28;5137900;28;20118;-58
2023/07/02 01:43:36;;;;;;;7.15;4.82;;;;;;;14.33;100.00;98367.97;5137910;28;20089;-59
2023/07/02 01:46:01;;;;;;;11.07;4.82;;;;;;;14.34;100.00;98364.03;5137799;28;20137;-60
2023/07/02 01:48:28;;;;;;;6.63;4.78;;;;;;;14.32;100.00;98371.13;5137891;28;20083;-56
2023/07/02 01:50:53;;;;;;;8.40;5.35;;;;;;;14.40;100.00;98369.88;5137585;28;20051;-54
2023/07/02 01:53:19;;;;;;;9.57;4.90;;;;;;;14.42;100.00;98366.69;5137897;27;20365;-53
2023/07/02 01:55:46;;;;;;;7.22;4.95;;;;;;;14.37;100.00;98373.47;5137501;28;20051;-53
2023/07/02 01:58:12;;;;;;;9.55;4.82;;;;;;;14.34;100.00;98369.53;5137933;28;20134;-52
2023/07/02 02:00:38;;;;;;;10.02;5.00;;;;;;;14.36;100.00;98374.63;5137710;28;20324;-54
2023/07/02 02:03:05;;;;;;;6.40;4.40;;;;;;;14.34;100.00;98366.78;5137289;27;20146;-56
2023/07/02 02:05:31;;;;;;;9.52;5.53;;;;;;;14.30;100.00;98376.28;5137665;28;20100;-60
2023/07/02 02:07:56;;;;;;;41.03;11.07;;;;;;;14.32;100.00;98374.66;5137483;28;20145;-58
2023/07/02 02:10:22;;;;;;;16.77;6.28;;;;;;;14.32;100.00;98362.84;5137617;28;20118;-57
2023/07/02 02:12:49;;;;;;;31.20;9.45;;;;;;;14.09;100.00;98372.53;5137464;28;20310;-55
2023/07/02 02:15:16;;;;;;;14.85;5.72;;;;;;;14.24;100.00;98362.16;5137497;27;20423;-56
2023/07/02 02:17:42;;;;;;;17.83;6.63;;;;;;;14.17;100.00;98351.19;5137248;28;20306;-53
2023/07/02 02:20:09;;;;;;;40.58;10.90;;;;;;;14.16;100.00;98346.09;5137602;28;20107;-56
2023/07/02 02:22:35;;;;;;;27.27;11.93;;;;;;;14.32;100.00;98338.81;5137159;28;20043;-55
2023/07/02 02:25:01;;;;;;;16.13;6.00;;;;;;;14.53;100.00;98354.41;5137685;28;20143;-54
2023/07/02 02:27:27;;;;;;;9.65;5.07;;;;;;;14.69;100.00;98361.31;5136988;28;20051;-53
2023/07/02 02:29:53;;;;;;;9.20;5.18;;;;;;;14.92;100.00;98374.44;5137237;28;20051;-60
2023/07/02 02:32:21;;;;;;;10.63;5.35;;;;;;;15.12;100.00;98377.34;5137250;27;20047;-59
2023/07/02 02:34:47;;;;;;;17.42;6.47;;;;;;;15.33;100.00;98376.28;5137205;28;20051;-59
2023/07/02 02:37:13;;;;;;;13.98;6.32;;;;;;;15.46;100.00;98358.72;5137051;27;20062;-60
2023/07/02 02:39:39;;;;;;;20.00;7.57;;;;;;;15.73;100.00;98306.25;5137055;28;20055;-57
2023/07/02 02:42:05;;;;;;;6.43;4.07;;;;;;;16.03;100.00;98223.56;5137310;28;20464;-53
2023/07/02 02:44:32;;;;;;;9.15;5.30;;;;;;;16.17;100.00;98134.84;5136998;27;20448;-57
2023/07/02 02:46:59;;;;;;;7.80;4.45;;;;;;;16.20;100.00;98056.56;5137257;27;20043;-58
2023/07/02 02:49:25;;;;;;;11.55;4.95;;;;;;;16.39;100.00;97964.44;5136749;28;20043;-58
2023/07/02 02:51:51;;;;;;;16.73;6.82;;;;;;;16.27;100.00;97907.06;5137149;27;20043;-59
2023/07/02 02:54:17;;;;;;;17.05;6.72;;;;;;;16.61;100.00;97844.94;5136794;28;20082;-58
2023/07/02 02:56:43;;;;;;;29.88;8.68;;;;;;;16.99;100.00;97728.78;5137108;27;20078;-57
2023/07/02 02:59:09;;;;;;;31.00;10.05;;;;;;;17.26;100.00;97562.19;5136649;28;20050;-54
2023/07/02 03:01:34;;;;;;;13.07;5.40;;;;;;;17.48;100.00;97431.97;5136614;28;20093;-52
2023/07/02 03:04:01;;;;;;;18.02;10.20;;;;;;;17.78;100.00;97300.19;5136735;27;20044;-52
2023/07/02 03:06:27;;;;;;;11.52;5.68;;;;;;;18.06;100.00;97147.75;5136544;28;20413;-51
2023/07/02 03:08:53;;;;;;;8.18;4.05;;;;;;;18.23;100.00;97057.44;5136546;27;20043;-51
2023/07/02 03:11:19;;;;;;;7.90;4.00;;;;;;;18.42;100.00;97008.19;5136758;28;20070;-54
2023/07/02 03:13:45;;;;;;;7.18;4.28;;;;;;;18.69;100.00;96987.84;5136894;28;20043;-55
2023/07/02 03:16:11;;;;;;;7.57;4.53;;;;;;;19.02;100.00;96923.19;5139071;27;20143;-58
2023/07/02 03:18:36;;;;;;;11.38;5.93;;;;;;;19.18;100.00;96886.63;5140451;28;20488;-59
2023/07/02 03:21:03;;;;;;;18.30;8.27;;;;;;;18.89;100.00;96903.25;5140083;28;20047;-60
2023/07/02 03:23:29;;;;;;;15.27;6.68;;;;;;;18.42;100.00;96924.22;5140460;27;20389;-60
2023/07/02 03:25:55;;;;;;;18.65;7.32;;;;;;;18.02;100.00;96972.47;5139851;28;20082;-59
2023/07/02 03:28:21;;;;;;;13.75;8.07;;;;;;;17.74;100.00;97113.88;5140114;28;20055;-58
2023/07/02 03:30:47;;;;;;;16.70;6.45;;;;;;;18.16;100.00;97195.66;5139990;27;20079;-55
2023/07/02 03:33:12;;;;;;;13.52;6.45;;;;;;;18.95;100.00;97054.81;5139877;28;20328;-56
2023/07/02 03:35:38;;;;;;;10.45;5.80;;;;;;;19.73;100.00;96904.75;5139971;28;20203;-53
2023/07/02 03:38:06;;;;;;;17.85;10.60;;;;;;;20.30;100.00;96865.38;5139905;28;20211;-52
2023/07/02 03:40:31;;;;;;;18.15;6.63;;;;;;;20.52;100.00;96889.97;5140079;28;20046;-58
2023/07/02 03:42:58;;;;;;;17.50;6.47;;;;;;;20.82;100.00;96912.09;5139765;28;20047;-56
2023/07/02 03:45:23;;;;;;;18.63;7.00;;;;;;;20.38;100.00;96905.44;5139845;27;20485;-53
2023/07/02 03:47:49;;;;;;;19.00;7.25;;;;;;;20.07;100.00;96880.25;5139511;28;20047;-56
2023/07/02 03:50:15;;;;;;;8.40;5.00;;;;;;;19.71;100.00;96868.31;5139765;28;20106;-57
2023/07/02 03:52:41;;;;;;;16.55;7.65;;;;;;;19.24;100.00;96890.25;5139526;28;20047;-59
2023/07/02 03:55:08;;;;;;;35.75;9.95;;;;;;;19.19;100.00;96904.84;5139891;28;20054;-60
2023/07/02 03:57:34;;;;;;;18.33;7.32;;;;;;;19.11;100.00;96939.00;5139376;28;20130;-57
2023/07/02 04:00:00;;;;;;;13.63;6.15;;;;;;;18.98;100.00;96997.56;5139343;28;20057;-59
2023/07/02 04:02:26;;;;;;;18.45;7.20;;;;;;;19.00;100.00;97042.31;5139574;27;20082;-59
2023/07/02 04:04:52;;;;;;;15.35;6.05;;;;;;;18.90;100.00;97076.91;5139471;28;20139;-59
2023/07/02 04:07:18;;;;;;;8.15;4.85;;;;;;;18.74;100.00;97092.72;5139338;28;20392;-59
2023/07/02 04:09:44;;;;;;;11.50;5.70;;;;;;;18.83;100.00;97105.00;5139256;27;20122;-59
2023/07/02 04:12:10;;;;;;;9.15;4.85;;;;;;;18.90;100.00;97126.88;5139409;28;20058;-58
2023/07/02 04:14:36;;;;;;;9.95;5.53;;;;;;;18.87;100.00;97138.94;5139181;28;20313;-56
2023/07/02 04:17:03;;;;;;;12.25;5.45;;;;;;;18.84;100.00;97126.75;5139581;28;20142;-51
2023/07/02 04:19:29;;;;;;;12.57;6.25;;;;;;;18.85;100.00;97156.03;5139023;28;20386;-57
2023/07/02 04:21:55;;;;;;;13.32;5.50;;;;;;;19.04;100.00;97181.72;5139464;28;20092;-56
2023/07/02 04:24:21;;;;;;;7.68;4.78;;;;;;;19.28;100.00;97165.09;5138967;28;20188;-57
2023/07/02 04:26:47;;;;;;;13.15;5.25;;;;;;;19.48;100.00;97036.69;5139246;27;20051;-59
2023/07/02 04:29:13;;;;;;;13.02;6.15;;;;;;;19.81;100.00;96975.38;5139139;28;20070;-58
2023/07/02 04:31:39;;;;;;;7.75;5.43;;;;;;;19.95;100.00;96926.56;5138745;28;20458;-59
2023/07/02 04:34:05;;;;;;;11.88;5.72;;;;;;;20.11;100.00;96912.16;5139089;27;20050;-58
2023/07/02 04:36:32;;;;;;;13.98;6.13;;;;;;;20.45;100.00;96865.31;5138894;28;20047;-52
2023/07/02 04:38:58;;;;;;;14.23;5.22;;;;;;;20.75;100.00;96856.81;5138913;27;20199;-60
2023/07/02 04:41:24;;;;;;;24.00;7.78;;;;;;;21.06;100.00;96848.56;5138665;28;20084;-58
2023/07/02 04:43:50;;;;;;;13.73;6.47;;;;;;;21.47;100.00;96837.28;5138997;28;20047;-52
2023/07/02 04:46:17;;;;;;;8.48;4.68;;;;;;;22.39;100.00;96938.63;5138729;28;20057;-54
2023/07/02 04:48:43;;;;;;;8.52;4.97;;;;;;;23.36;100.00;97064.34;5138979;28;20073;-60
2023/07/02 04:51:09;;;;;;;20.55;7.05;;;;;;;24.21;100.00;97224.91;5138413;28;20491;-56
2023/07/02 04:53:37;;;;;;;11.18;5.40;;;;;;;24.68;100.00;97309.34;5138948;27;20051;-57
2023/07/02 04:56:03;;;;;;;10.98;6.10;;;;;;;25.47;100.00;97373.97;5138451;28;20051;-57
2023/07/02 04:58:29;;;;;;;9.05;5.40;;;;;;;25.48;100.00;97487.72;5138370;28;20494;-52
2023/07/02 05:00:55;;;;;;;7.68;4.90;;;;;;;26.36;100.00;97535.28;5138368;27;20047;-53
2023/07/02 05:03:22;;;;;;;11.80;6.30;;;;;;;26.42;100.00;97545.22;5138515;28;20134;-53
2023/07/02 05:05:48;;;;;;;6.68;4.82;;;;;;;26.42;100.00;97550.09;5138566;28;20063;-54
2023/07/02 05:08:14;;;;;;;9.13;4.38;;;;;;;26.87;100.00;97570.50;5138220;28;20512;-56
2023/07/02 05:10:40;;;;;;;6.80;4.18;;;;;;;25.34;100.00;97565.19;5138118;28;20107;-52
2023/07/02 05:13:06;;;;;;;7.75;4.22;;;;;;;25.76;100.00;97555.13;5138266;28;20138;-52
2023/07/02 05:15:32;;;;;;;6.25;4.47;;;;;;;25.38;100.00;97546.09;5138435;27;20327;-52
2023/07/02 05:17:58;;;;;;;5.78;4.22;;;;;;;25.60;100.00;97539.78;5138153;28;20087;-53
2023/07/02 05:20:24;;;;;;;11.50;4.50;;;;;;;26.31;100.00;97550.09;5138051;28;20047;-56
2023/07/02 05:22:50;;;;;;;8.77;4.80;;;;;;;26.93;100.00;97550.81;5138019;28;20047;-53
2023/07/02 05:25:17;;;;;;;9.23;4.63;;;;;;;27.52;100.00;97574.13;5138460;28;20050;-50
2023/07/02 05:27:43;;;;;;;9.43;5.05;;;;;;;28.18;99.93;97580.69;5138168;28;20051;-57
2023/07/02 05:30:09;;;;;;;8.82;5.60;;;;;;;28.13;95.64;97587.91;5137949;28;20043;-58
2023/07/02 05:32:35;;;;;;;7.28;5.00;;;;;;;27.70;100.00;97582.00;5138159;28;20051;-58
2023/07/02 05:35:02;;;;;;;7.30;4.93;;;;;;;27.53;100.00;97561.63;5137918;27;20047;-57
2023/07/02 05:37:28;;;;;;;7.15;4.10;;;;;;;26.74;100.00;97564.66;5137397;27;20046;-50
2023/07/02 05:39:54;;;;;;;8.82;3.90;;;;;;;26.40;100.00;97549.84;5137895;28;20056;-52
2023/07/02 05:42:20;;;;;;;10.30;5.20;;;;;;;25.89;100.00;97524.56;5138124;28;20130;-52
2023/07/02 05:44:46;;;;;;;13.88;5.57;;;;;;;24.99;100.00;97504.63;5137633;27;20138;-53
2023/07/02 05:47:12;;;;;;;5.85;3.92;;;;;;;24.93;100.00;97467.38;5138078;28;20093;-53
2023/07/02 05:49:37;;;;;;;5.82;3.63;;;;;;;23.92;100.00;97456.28;5137478;28;20134;-56
2023/07/02 05:52:04;;;;;;;5.40;3.70;;;;;;;23.77;100.00;97461.28;5137997;28;20051;-58
2023/07/02 05:54:30;;;;;;;4.68;3.80;;;;;;;22.87;100.00;97426.75;5137427;28;20058;-52
2023/07/02 05:56:56;;;;;;;7.95;4.25;;;;;;;23.63;100.00;97425.78;5137673;28;20142;-54
2023/07/02 05:59:22;;;;;;;5.18;3.25;;;;;;;22.58;100.00;97432.47;5137672;27;20134;-53
2023/07/02 06:01:48;;;;;;;7.00;3.40;;;;;;;22.44;100.00;97418.09;5137522;28;20328;-53
2023/07/02 06:04:14;;;;;;;6.80;3.50;;;;;;;22.68;100.00;97420.69;5137678;28;20078;-53
2023/07/02 06:06:40;;;;;;;3.75;2.65;;;;;;;22.23;100.00;97422.88;5137397;28;20073;-57
2023/07/02 06:09:06;;;;;;;5.75;3.55;;;;;;;22.29;100.00;97392.25;5137680;27;20058;-60
2023/07/02 06:11:32;;;;;;;5.32;2.92;;;;;;;22.82;100.00;97415.50;5137352;28;20055;-58
2023/07/02 06:13:58;;;;;;;7.30;3.17;;;;;;;23.48;100.00;97418.25;5137687;28;20138;-60
2023/07/02 06:16:25;;;;;;;6.25;2.88;;;;;;;23.61;100.00;97431.84;5137210;28;20138;-59
2023/07/02 06:18:51;;;;;;;9.48;4.25;;;;;;;23.85;100.00;97434.38;5137650;28;20146;-58
2023/07/02 06:21:17;;;;;;;7.63;4.95;;;;;;;23.61;100.00;97423.47;5137097;28;20104;-60
2023/07/02 06:23:43;;;;;;;7.05;3.92;;;;;;;22.89;100.00;97393.50;5137618;28;20138;-58
2023/07/02 06:26:09;;;;;;;5.60;3.63;;;;;;;22.38;100.00;97343.91;5137285;28;20073;-60
2023/07/02 06:28:36;;;;;;;6.75;3.83;;;;;;;22.37;100.00;97314.44;5137294;27;20397;-57
2023/07/02 06:31:02;;;;;;;8.75;4.20;;;;;;;22.51;100.00;97314.34;5137326;27;20067;-59
2023/07/02 06:33:28;;;;;;;6.47;3.38;;;;;;;22.87;100.00;97306.63;5136923;28;20179;-56
2023/07/02 06:35:53;;;;;;;7.30;3.83;;;;;;;23.25;100.00;97327.81;5137037;28;20108;-52
2023/07/02 06:38:19;;;;;;;7.03;4.90;;;;;;;23.57;100.00;97315.88;5136971;27;20078;-55
2023/07/02 06:40:45;;;;;;;7.00;4.57;;;;;;;23.56;100.00;97351.47;5137083;28;20051;-54
2023/07/02 06:43:11;;;;;;;6.18;3.83;;;;;;;23.09;100.00;97313.69;5136988;27;20058;-58
2023/07/02 06:45:38;;;;;;;6.13;3.58;;;;;;;23.44;100.00;97302.31;5137175;28;20051;-60
2023/07/02 06:48:04;;;;;;;5.28;2.88;;;;;;;23.40;100.00;97335.31;5136907;28;20134;-57
2023/07/02 06:50:30;;;;;;;6.78;3.45;;;;;;;22.32;100.00;97279.63;5138632;27;20047;-59
2023/07/02 06:52:56;;;;;;;8.52;3.35;;;;;;;22.26;100.00;97195.06;5140371;28;20049;-57
2023/07/02 06:55:23;;;;;;;14.68;3.70;;;;;;;23.14;100.00;97268.28;5140796;28;20079;-56
2023/07/02 06:57:49;;;;;;;8.02;3.50;;;;;;;23.21;100.00;97270.59;5140276;28;20046;-56
2023/07/02 07:00:15;;;;;;;7.70;3.53;;;;;;;22.90;100.00;97283.28;5140346;28;20058;-55
2023/07/02 07:02:42;;;;;;;8.63;4.32;;;;;;;23.36;100.00;97299.19;5140602;28;20124;-52
2023/07/02 07:05:09;;;;;;;5.22;3.47;;;;;;;22.31;100.00;97276.06;5140337;27;20310;-56
2023/07/02 07:07:35;;;;;;;8.93;3.72;;;;;;;23.16;100.00;97300.06;5140079;28;20054;-56
2023/07/02 07:10:01;;;;;;;11.65;3.13;;;;;;;22.86;100.00;97290.34;5140091;28;20043;-56
2023/07/02 07:12:27;;;;;;;5.97;3.55;;;;;;;22.86;100.00;97274.34;5140038;28;20172;-59
2023/07/02 07:14:53;;;;;;;7.13;4.57;;;;;;;23.00;100.00;97279.09;5140114;27;20137;-55
2023/07/02 07:17:19;;;;;;;11.02;3.40;;;;;;;22.52;100.00;97259.28;5140058;28;20433;-57
2023/07/02 07:19:46;;;;;;;8.65;3.58;;;;;;;23.15;100.00;97236.25;5140066;27;20055;-55
2023/07/02 07:22:11;;;;;;;13.27;3.92;;;;;;;23.82;100.00;97306.66;5139955;27;20130;-56
2023/07/02 07:24:37;;;;;;;5.80;2.67;;;;;;;23.63;100.00;97316.69;5139780;28;20455;-56
2023/07/02 07:27:04;;;;;;;11.52;3.30;;;;;;;22.70;100.00;97261.75;5140103;28;20082;-58
2023/07/02 07:29:30;;;;;;;7.22;3.80;;;;;;;23.64;100.00;97270.66;5140071;28;20051;-53
2023/07/02 07:31:56;;;;;;;14.90;4.97;;;;;;;24.26;100.00;97310.16;5139631;28;20093;-56
2023/07/02 07:34:22;;;;;;;9.52;4.50;;;;;;;24.57;100.00;97298.09;5140087;28;20062;-56
2023/07/02 07:36:48;;;;;;;13.02;4.03;;;;;;;23.14;100.00;97276.66;5139745;28;20164;-59
2023/07/02 07:39:14;;;;;;;8.88;5.35;;;;;;;24.01;100.00;97262.22;5140103;28;20061;-57
2023/07/02 07:41:40;;;;;;;8.38;5.47;;;;;;;24.50;100.00;97312.59;5139690;28;20329;-58
2023/07/02 07:44:06;;;;;;;6.60;5.20;;;;;;;24.77;100.00;97328.72;5139860;28;20480;-60
2023/07/02 07:46:32;;;;;;;8.60;5.40;;;;;;;25.00;100.00;97340.00;5139567;28;20146;-59
2023/07/02 07:48:58;;;;;;;12.93;5.75;;;;;;;25.95;100.00;97393.34;5139473;28;20047;-59
2023/07/02 07:51:24;;;;;;;6.47;5.05;;;;;;;25.48;100.00;97370.66;5139404;28;20097;-56
2023/07/02 07:53:50;;;;;;;7.03;5.82;;;;;;;25.88;100.00;97362.25;5139837;28;20043;-54
2023/07/02 07:56:16;;;;;;;10.50;5.55;;;;;;;25.55;100.00;97338.50;5139631;28;20047;-56
2023/07/02 07:58:42;;;;;;;8.27;5.38;;;;;;;25.81;100.00;97343.88;5139606;28;20302;-54
2023/07/02 08:01:08;;;;;;;8.98;6.00;;;;;;;24.77;100.00;97264.28;5139154;27;20542;-52
2023/07/02 08:03:37;;;;;;;9.30;5.80;;;;;;;25.95;100.00;97314.75;5139453;27;20062;-53
2023/07/02 08:06:03;;;;;;;8.90;6.03;;;;;;;25.40;100.00;97265.84;5139547;28;20358;-59
2023/07/02 08:08:28;;;;;;;11.52;6.10;;;;;;;25.25;100.00;97291.34;5139166;28;20373;-54
2023/07/02 08:10:55;;;;;;;9.85;7.53;;;;;;;25.36;100.00;97248.53;5139093;27;20053;-55
2023/07/02 08:13:21;;;;;;;10.07;7.30;;;;;;;25.78;100.00;97247.41;5139072;28;20083;-56
2023/07/02 08:15:47;;;;;;;10.02;7.25;;;;;;;25.92;100.00;97256.81;5139360;28;20058;-52
2023/07/02 08:18:13;;;;;;;10.40;7.20;;;;;;;25.85;100.00;97270.63;5139085;28;20051;-59
2023/07/02 08:20:39;;;;;;;8.77;6.03;;;;;;;26.23;100.00;97286.59;5139328;28;20141;-52
2023/07/02 08:23:05;;;;;;;9.85;6.53;;;;;;;26.62;100.00;97307.38;5138793;27;20047;-52
2023/07/02 08:25:31;;;;;;;8.70;7.05;;;;;;;25.70;100.00;97243.59;5139098;28;20090;-53
2023/07/02 08:27:58;;;;;;;8.15;7.25;;;;;;;26.02;100.00;97268.53;5138867;28;20312;-53
2023/07/02 08:30:23;;;;;;;11.70;7.15;;;;;;;26.69;100.00;97275.91;5138933;28;20051;-54
2023/07/02 08:32:49;;;;;;;7.95;7.15;;;;;;;27.45;100.00;97311.69;5138999;28;20319;-57
2023/07/02 08:35:15;;;;;;;7.18;6.45;;;;;;;27.44;100.00;97331.91;5138871;28;20407;-58
2023/07/02 08:37:41;;;;;;;8.90;6.80;;;;;;;27.42;100.00;97365.44;5138861;28;20111;-57
2023/07/02 08:40:16;;;;;;;8.45;7.22;;;;;;;27.14;100.00;97343.91;5138808;28;20141;-60
2023/07/02 08:42:42;;;;;;;8.50;7.55;;;;;;;26.16;100.00;97320.84;5138999;28;20047;-55
2023/07/02 08:45:11;;;;;;;11.43;8.77;;;;;;;26.04;100.00;97247.09;5138651;28;20442;-56
2023/07/02 08:47:37;;;;;;;10.10;8.77;;;;;;;26.97;100.00;97290.56;5139081;27;20123;-57
2023/07/02 08:50:03;;;;;;;17.48;8.52;;;;;;;26.68;100.00;97275.16;5138355;28;20503;-58
2023/07/02 08:52:29;;;;;;;11.48;8.02;;;;;;;26.96;100.00;97333.28;5138597;28;20432;-57
2023/07/02 08:54:55;;;;;;;16.17;8.52;;;;;;;26.95;100.00;97345.78;5138411;28;20043;-54
2023/07/02 08:57:21;;;;;;;18.88;7.93;;;;;;;26.87;100.00;97344.81;5138616;27;20175;-55
2023/07/02 08:59:48;;;;;;;8.25;7.40;;;;;;;26.44;100.00;97308.72;5138583;28;20103;-60
2023/07/02 09:02:15;;;;;;;9.90;7.80;;;;;;;26.19;100.00;97299.38;5138438;27;20051;-56
2023/07/02 09:04:41;;;;;;;9.27;7.78;;;;;;;25.77;100.00;97348.97;5138436;28;20392;-56
2023/07/02 09:07:09;;;;;;;13.93;9.45;;;;;;;26.22;100.00;97306.75;5138196;28;20149;-56
2023/07/02 09:09:45;;;;;;;11.45;9.40;;;;;;;25.71;100.00;97235.94;5138450;27;20134;-54
2023/07/02 09:12:22;;;;;;;13.15;7.50;;;;;;;24.48;100.00;97164.66;5137822;27;20046;-57
2023/07/02 09:14:55;;;;;;;14.20;9.10;;;;;;;24.94;100.00;97196.25;5138391;28;20047;-60
2023/07/02 09:17:22;;;;;;;8.13;5.15;;;;;;;25.01;100.00;97199.31;5138349;28;20073;-56
2023/07/02 09:19:51;;;;;;;12.60;6.28;;;;;;;25.06;100.00;97187.34;5137961;28;20149;-53
2023/07/02 09:22:17;;;;;;;10.73;8.50;;;;;;;24.46;100.00;97150.41;5138085;28;20392;-54
2023/07/02 09:24:51;;;;;;;14.57;8.50;;;;;;;25.00;100.00;97197.03;5137977;28;20138;-53
2023/07/02 09:27:17;;;;;;;10.35;5.50;;;;;;;24.21;100.00;97249.34;5137721;28;20397;-60
2023/07/02 09:29:43;;;;;;;10.57;8.00;;;;;;;24.64;100.00;97261.19;5137798;28;20091;-60
2023/07/02 09:32:10;;;;;;;9.73;8.32;;;;;;;24.57;100.00;97329.69;5138105;27;20142;-57
2023/07/02 09:34:40;;;;;;;8.82;7.95;;;;;;;24.31;100.00;97285.00;5137833;28;20062;-55
2023/07/02 09:37:06;;;;;;;8.45;7.65;;;;;;;26.06;100.00;97316.78;5138078;28;20518;-61
2023/07/02 09:39:34;;;;;;;9.75;8.23;;;;;;;26.80;100.00;97365.06;5137667;28;20047;-55
2023/07/02 09:42:05;;;;;;;15.88;8.07;;;;;;;26.28;100.00;97361.63;5137932;28;20055;-56
2023/07/02 09:44:32;;;;;;;11.18;8.25;;;;;;;26.93;100.00;97356.81;5137610;28;20401;-54
2023/07/02 09:47:02;;;;;;;9.73;8.02;;;;;;;27.41;100.00;97324.53;5137770;27;20069;-52
2023/07/02 09:49:32;;;;;;;9.90;7.85;;;;;;;28.05;100.00;97341.84;5137859;27;20051;-61
2023/07/02 09:51:59;;;;;;;9.38;8.45;;;;;;;27.76;100.00;97360.34;5137571;28;20146;-55
2023/07/02 09:54:25;;;;;;;8.77;7.78;;;;;;;29.43;100.00;97358.81;5137707;28;20413;-58
2023/07/02 09:56:51;;;;;;;9.68;8.30;;;;;;;29.60;100.00;97369.88;5137352;28;20099;-58
2023/07/02 09:59:17;;;;;;;9.38;8.20;;;;;;;28.65;100.00;97368.38;5137694;28;20324;-55
2023/07/02 10:01:43;;;;;;;10.90;8.35;;;;;;;27.81;100.00;97353.13;5137345;28;20093;-57
2023/07/02 10:04:13;;;;;;;11.68;8.55;;;;;;;27.44;100.00;97343.16;5137750;28;20047;-52
2023/07/02 10:06:46;;;;;;;10.75;8.70;;;;;;;28.18;100.00;97323.53;5137209;27;20054;-56
2023/07/02 10:09:12;;;;;;;;;;;;;;;27.56;100.00;97319.28;5137681;28;20473;-52
2023/07/02 10:11:38;;;;;;;16.35;8.93;;;;;;;27.14;100.00;97321.41;5137546;28;20017;-58
2023/07/02 10:14:04;;;;;;;11.57;9.23;;;;;;;28.37;100.00;97335.63;5137415;28;20134;-53
2023/07/02 10:16:31;;;;;;;13.68;8.82;;;;;;;27.40;100.00;97314.56;5137562;27;20107;-52
2023/07/02 10:19:08;;;;;;;12.52;9.23;;;;;;;28.27;100.00;97314.75;5137303;28;20051;-60
2023/07/02 10:21:34;;;;;;;11.75;9.32;;;;;;;27.38;100.00;97295.38;5137522;27;20055;-52
2023/07/02 10:24:09;;;;;;;9.57;8.55;;;;;;;27.66;100.00;97297.19;5138985;27;20344;-59
2023/07/02 10:26:36;;;;;;;11.32;9.95;;;;;;;28.17;100.00;97310.75;5144540;27;20164;-59
2023/07/02 10:29:02;;;;;;;9.27;8.38;;;;;;;27.91;100.00;97286.72;5144007;27;20145;-53
2023/07/02 10:31:28;;;;;;;10.45;8.35;;;;;;;26.75;100.00;97246.47;5143715;27;20412;-60
2023/07/02 10:33:54;;;;;;;11.55;8.18;;;;;;;27.95;100.00;97266.69;5144018;27;20055;-59
2023/07/02 10:36:21;;;;;;;9.68;8.35;;;;;;;27.84;100.00;97295.75;5143925;27;20082;-56
2023/07/02 10:38:47;;;;;;;8.60;7.80;;;;;;;28.03;100.00;97279.66;5144146;27;20073;-60
2023/07/02 10:41:24;;;;;;;9.10;8.20;;;;;;;27.61;100.00;97279.06;5144002;27;20051;-58
2023/07/02 10:43:51;;;;;;;8.93;8.02;;;;;;;27.94;100.00;97284.91;5144143;27;20043;-59
2023/07/02 10:46:19;;;;;;;11.05;8.10;;;;;;;27.52;100.00;97292.69;5143860;27;20051;-59
2023/07/02 10:48:51;;;;;;;10.23;8.77;;;;;;;26.54;100.00;97253.78;5144099;27;20083;-59
2023/07/02 10:51:17;;;;;;;10.18;8.13;;;;;;;26.65;100.00;97211.53;5143549;27;20050;-59
2023/07/02 10:53:43;;;;;;;9.27;8.38;;;;;;;26.19;100.00;97201.06;5144187;27;20066;-60
2023/07/02 10:56:16;;;;;;;12.23;8.68;;;;;;;26.81;100.00;97223.97;5143504;27;20051;-61
2023/07/02 10:58:42;;;;;;;9.60;8.73;;;;;;;27.32;100.00;97226.38;5143852;27;20134;-61
2023/07/02 11:01:09;;;;;;;10.77;8.38;;;;;;;26.43;100.00;97201.19;5143853;27;20146;-57
2023/07/02 11:03:35;;;;;;;9.50;8.60;;;;;;;26.26;100.00;97190.06;5143738;27;20043;-57
2023/07/02 11:06:01;;;;;;;11.05;8.27;;;;;;;26.43;100.00;97164.69;5143772;27;20103;-54
2023/07/02 11:08:35;;;;;;;9.30;8.32;;;;;;;26.35;100.00;97154.50;5143617;27;20093;-53
2023/07/02 11:11:06;;;;;;;9.95;8.40;;;;;;;26.71;100.00;97161.69;5143728;27;20196;-57
2023/07/02 11:13:32;;;;;;;9.95;8.52;;;;;;;27.20;100.00;97175.09;5143322;27;20046;-54
2023/07/02 11:15:58;;;;;;;11.32;8.80;;;;;;;27.14;100.00;97169.53;5143676;27;20042;-55
2023/07/02 11:18:30;;;;;;;11.93;9.50;;;;;;;27.61;100.00;97191.78;5143206;27;20076;-57